Time;durP1;ratioP1;P1;durP2;ratioP2;P2;SDS_P1;SDS_P2;PMS_P1;PMS_P2;Temp;Humidity;BMP_temperature;BMP_pressure;BME280_temperature;BME280_humidity;BME280_pressure;Samples;Min_cycle;Max_cycle;Signal;HPM_P1;HPM_P2
2022/08/26 00:00:14;;;;;;;5.70;4.53;;;28.10;1.00;;;;;;5043502;28;20079;-56
2022/08/26 00:02:40;;;;;;;4.38;3.47;;;28.10;1.00;;;;;;5032805;28;20125;-57
2022/08/26 00:05:05;;;;;;;6.65;4.45;;;28.00;1.00;;;;;;5031813;28;20068;-59
2022/08/26 00:07:31;;;;;;;7.65;4.18;;;28.00;1.00;;;;;;5018767;28;20029;-57
2022/08/26 00:09:57;;;;;;;7.38;4.55;;;28.10;1.00;;;;;;5032562;28;20056;-57
2022/08/26 00:12:23;;;;;;;5.65;3.90;;;28.00;1.00;;;;;;5031242;28;20021;-58
2022/08/26 00:14:48;;;;;;;5.30;4.15;;;28.00;1.00;;;;;;5039284;28;20482;-58
2022/08/26 00:17:14;;;;;;;9.77;4.57;;;28.00;1.00;;;;;;5031572;28;20111;-57
2022/08/26 00:19:40;;;;;;;4.57;4.05;;;28.00;1.00;;;;;;5042582;28;20033;-58
2022/08/26 00:22:05;;;;;;;4.47;4.07;;;27.90;1.00;;;;;;5031183;28;20042;-57
2022/08/26 00:24:31;;;;;;;5.32;4.20;;;27.90;1.00;;;;;;5041281;28;20086;-55
2022/08/26 00:26:57;;;;;;;6.90;4.07;;;27.90;1.00;;;;;;5034140;28;20053;-57
2022/08/26 00:29:23;;;;;;;5.95;4.05;;;27.90;1.00;;;;;;5038920;28;20396;-57
2022/08/26 00:31:49;;;;;;;6.85;4.05;;;27.90;1.00;;;;;;5035310;28;20124;-56
2022/08/26 00:34:15;;;;;;;6.57;4.50;;;27.80;1.00;;;;;;5031824;28;20116;-58
2022/08/26 00:36:41;;;;;;;6.57;4.13;;;27.80;1.00;;;;;;5047270;28;20091;-58
2022/08/26 00:39:08;;;;;;;5.57;4.30;;;27.80;1.00;;;;;;5031282;28;20500;-57
2022/08/26 00:41:38;;;;;;;7.60;4.13;;;27.80;1.00;;;;;;5032187;28;20074;-57
2022/08/26 00:44:04;;;;;;;5.63;3.95;;;27.80;1.00;;;;;;5031545;28;20105;-58
2022/08/26 00:46:34;;;;;;;5.45;4.05;;;27.80;1.00;;;;;;5032147;28;20452;-56
2022/08/26 00:49:15;;;;;;;6.22;4.82;;;27.80;1.00;;;;;;5036380;28;20029;-56
2022/08/26 00:51:51;;;;;;;4.72;4.20;;;27.70;1.00;;;;;;5032851;28;20029;-58
2022/08/26 00:54:21;;;;;;;6.05;4.50;;;27.70;1.00;;;;;;5038332;28;20429;-57
2022/08/26 00:56:58;;;;;;;7.53;4.57;;;27.70;1.00;;;;;;5032717;28;20029;-56
2022/08/26 00:59:25;;;;;;;6.82;4.85;;;27.60;1.00;;;;;;5027074;28;20048;-55
2022/08/26 01:01:51;;;;;;;4.78;4.28;;;27.60;1.00;;;;;;5030704;28;20080;-56
2022/08/26 01:04:19;;;;;;;7.25;4.78;;;27.60;1.00;;;;;;5030686;28;20486;-56
2022/08/26 01:06:47;;;;;;;7.20;5.30;;;27.50;1.00;;;;;;5031862;28;20048;-57
2022/08/26 01:09:14;;;;;;;9.90;5.05;;;27.60;1.00;;;;;;5034208;28;20437;-57
2022/08/26 01:11:40;;;;;;;7.10;4.70;;;27.60;1.00;;;;;;5040834;28;20455;-58
2022/08/26 01:14:07;;;;;;;6.93;4.55;;;27.60;1.00;;;;;;5028680;28;20493;-58
2022/08/26 01:16:34;;;;;;;6.93;4.72;;;27.60;1.00;;;;;;5028775;28;20037;-58
2022/08/26 01:19:19;;;;;;;7.78;5.05;;;27.50;1.00;;;;;;5033909;28;20041;-57
2022/08/26 01:22:01;;;;;;;9.10;4.85;;;27.50;1.00;;;;;;5033221;28;20029;-58
2022/08/26 01:24:28;;;;;;;7.95;5.10;;;27.40;1.00;;;;;;5035078;28;20021;-58
2022/08/26 01:27:02;;;;;;;5.63;5.00;;;27.40;1.00;;;;;;5033296;28;20048;-58
2022/08/26 01:29:31;;;;;;;7.10;4.82;;;27.40;1.00;;;;;;5034924;28;20029;-56
2022/08/26 01:31:57;;;;;;;5.85;4.50;;;27.40;1.00;;;;;;5031933;28;20407;-58
2022/08/26 01:34:35;;;;;;;8.98;4.93;;;27.40;1.00;;;;;;5035428;28;20446;-58
2022/08/26 01:37:05;;;;;;;5.07;4.40;;;27.40;1.00;;;;;;5046585;28;20385;-58
2022/08/26 01:39:32;;;;;;;6.25;4.57;;;27.40;1.00;;;;;;5035751;28;20108;-57
2022/08/26 01:42:00;;;;;;;7.10;4.45;;;27.40;1.00;;;;;;5034391;28;20037;-55
2022/08/26 01:44:35;;;;;;;6.28;4.18;;;27.40;1.00;;;;;;5035348;28;20391;-58
2022/08/26 01:47:01;;;;;;;12.90;5.28;;;27.40;1.00;;;;;;5033219;28;20021;-57
2022/08/26 01:56:18;;;;;;;5.10;4.70;;;27.30;1.00;;;;;;5027282;28;20036;-57
2022/08/26 01:58:49;;;;;;;5.57;4.38;;;27.30;1.00;;;;;;5028302;28;20029;-56
2022/08/26 02:01:16;;;;;;;8.45;4.63;;;27.20;1.00;;;;;;5035564;28;20017;-57
2022/08/26 02:04:01;;;;;;;6.50;4.10;;;27.20;1.00;;;;;;5035198;28;20048;-58
2022/08/26 02:06:28;;;;;;;9.02;4.22;;;27.20;1.00;;;;;;5034197;28;20025;-59
2022/08/26 02:08:56;;;;;;;5.22;4.45;;;27.20;1.00;;;;;;5035020;28;20033;-58
2022/08/26 02:11:22;;;;;;;6.10;4.72;;;27.20;1.00;;;;;;5033230;28;20048;-58
2022/08/26 02:13:56;;;;;;;4.50;4.10;;;27.20;1.00;;;;;;5034831;28;20390;-59
2022/08/26 02:16:24;;;;;;;7.28;4.20;;;27.20;1.00;;;;;;5036479;28;20043;-58
2022/08/26 02:18:51;;;;;;;6.20;4.05;;;27.20;1.00;;;;;;5042545;28;20037;-58
2022/08/26 02:21:17;;;;;;;4.05;3.65;;;27.20;1.00;;;;;;5036477;28;20651;-58
2022/08/26 02:23:43;;;;;;;7.25;4.68;;;27.20;1.00;;;;;;5044215;28;20029;-58
2022/08/26 02:26:21;;;;;;;4.53;4.03;;;27.10;1.00;;;;;;5035479;28;20025;-58
2022/08/26 02:28:58;;;;;;;6.45;4.47;;;27.10;1.00;;;;;;5034442;28;20109;-56
2022/08/26 02:31:24;;;;;;;5.03;4.18;;;27.10;1.00;;;;;;5037175;28;20049;-56
2022/08/26 02:33:50;;;;;;;4.18;3.83;;;27.10;1.00;;;;;;5034655;28;20022;-58
2022/08/26 02:36:25;;;;;;;6.32;4.93;;;27.10;1.00;;;;;;5035535;28;20033;-58
2022/08/26 02:38:50;;;;;;;9.85;4.40;;;27.10;1.00;;;;;;5035304;28;20367;-57
2022/08/26 02:41:16;;;;;;;4.78;4.28;;;27.00;1.00;;;;;;5035308;28;20038;-58
2022/08/26 02:43:43;;;;;;;6.00;3.90;;;27.00;1.00;;;;;;5037164;28;20033;-57
2022/08/26 02:46:08;;;;;;;5.57;4.30;;;27.10;1.00;;;;;;5033780;28;20096;-58
2022/08/26 02:48:34;;;;;;;4.65;4.18;;;27.00;1.00;;;;;;5038887;28;20034;-56
2022/08/26 02:51:00;;;;;;;4.43;3.97;;;27.00;1.00;;;;;;5033426;28;20440;-58
2022/08/26 02:53:27;;;;;;;5.80;4.15;;;27.00;1.00;;;;;;5033794;28;20036;-57
2022/08/26 02:55:52;;;;;;;5.47;3.90;;;27.10;1.00;;;;;;5034044;28;20025;-58
2022/08/26 02:58:19;;;;;;;6.18;4.60;;;27.10;1.00;;;;;;5040002;28;20393;-58
2022/08/26 03:00:46;;;;;;;4.68;3.85;;;27.10;1.00;;;;;;5033966;28;20021;-58
2022/08/26 03:03:12;;;;;;;7.68;4.45;;;27.10;1.00;;;;;;5040811;28;20084;-56
2022/08/26 03:05:38;;;;;;;5.88;4.40;;;27.00;1.00;;;;;;5032536;28;20033;-57
2022/08/26 03:08:04;;;;;;;5.63;4.05;;;27.00;1.00;;;;;;5032959;28;20037;-58
2022/08/26 03:10:30;;;;;;;6.45;4.40;;;27.00;1.00;;;;;;5032883;28;20030;-57
2022/08/26 03:12:58;;;;;;;5.32;4.05;;;27.00;1.00;;;;;;5032891;28;20545;-58
2022/08/26 03:15:24;;;;;;;4.82;4.43;;;26.90;1.00;;;;;;5033048;28;20025;-58
2022/08/26 03:17:50;;;;;;;4.35;3.95;;;26.90;1.00;;;;;;5033550;28;20021;-58
2022/08/26 03:20:16;;;;;;;9.77;4.38;;;27.00;1.00;;;;;;5036813;28;20490;-58
2022/08/26 03:22:42;;;;;;;5.03;4.03;;;26.90;1.00;;;;;;5037409;28;20064;-58
2022/08/26 03:25:09;;;;;;;5.57;4.18;;;26.90;1.00;;;;;;5032468;28;20033;-57
2022/08/26 03:27:35;;;;;;;5.90;4.25;;;26.90;1.00;;;;;;5036115;28;20022;-58
2022/08/26 03:32:45;;;;;;;4.57;3.80;;;26.90;1.00;;;;;;5033363;28;20103;-57
2022/08/26 03:35:11;;;;;;;4.38;3.97;;;26.90;1.00;;;;;;5035249;28;20026;-58
2022/08/26 03:37:38;;;;;;;4.70;3.65;;;26.80;1.00;;;;;;5033329;28;20096;-58
2022/08/26 03:40:06;;;;;;;6.82;4.35;;;26.80;1.00;;;;;;5034853;28;20032;-58
2022/08/26 03:42:34;;;;;;;9.55;5.03;;;26.80;1.00;;;;;;5032925;28;20025;-58
2022/08/26 03:45:02;;;;;;;6.72;4.00;;;26.80;1.00;;;;;;5034785;28;20518;-59
2022/08/26 03:47:30;;;;;;;9.82;4.50;;;26.80;1.00;;;;;;5017987;28;20032;-58
2022/08/26 03:49:56;;;;;;;5.40;4.03;;;26.80;1.00;;;;;;5034669;28;20467;-58
2022/08/26 03:52:22;;;;;;;7.90;3.92;;;26.80;1.00;;;;;;5034422;28;20138;-58
2022/08/26 03:54:48;;;;;;;5.90;4.25;;;26.80;1.00;;;;;;5031759;28;20029;-57
2022/08/26 03:57:13;;;;;;;6.82;4.32;;;26.70;1.00;;;;;;5036323;28;20395;-58
2022/08/26 03:59:39;;;;;;;6.55;4.10;;;26.70;1.00;;;;;;5031911;28;20037;-59
2022/08/26 04:02:04;;;;;;;6.57;4.38;;;26.70;1.00;;;;;;5032569;28;20052;-58
2022/08/26 04:04:34;;;;;;;5.20;3.63;;;26.70;1.00;;;;;;5031657;28;20021;-58
2022/08/26 04:07:00;;;;;;;6.55;4.22;;;26.70;1.00;;;;;;5029984;28;20026;-58
2022/08/26 04:09:27;;;;;;;7.32;3.70;;;26.70;1.00;;;;;;5031257;28;20025;-58
2022/08/26 04:11:53;;;;;;;6.95;3.85;;;26.70;1.00;;;;;;5031680;28;20089;-58
2022/08/26 04:14:21;;;;;;;6.28;4.10;;;26.70;1.00;;;;;;5032570;28;20529;-58
2022/08/26 04:16:47;;;;;;;6.00;4.25;;;26.70;1.00;;;;;;5032329;28;20052;-58
2022/08/26 04:19:15;;;;;;;4.47;4.07;;;26.70;1.00;;;;;;5032829;28;20025;-58
2022/08/26 04:21:42;;;;;;;7.03;4.10;;;26.60;1.00;;;;;;5031583;28;20422;-58
2022/08/26 04:24:10;;;;;;;8.02;4.10;;;26.60;1.00;;;;;;5032271;28;20061;-58
2022/08/26 04:26:37;;;;;;;4.97;4.03;;;26.60;1.00;;;;;;5043502;28;20025;-59
2022/08/26 04:29:05;;;;;;;5.82;4.22;;;26.60;1.00;;;;;;5042110;28;20041;-58
2022/08/26 04:31:33;;;;;;;7.13;4.13;;;26.60;1.00;;;;;;5031845;28;20079;-57
2022/08/26 04:33:59;;;;;;;4.75;3.92;;;26.60;1.00;;;;;;5029227;28;20021;-56
2022/08/26 04:36:24;;;;;;;8.02;4.30;;;26.60;1.00;;;;;;5030224;28;20167;-58
2022/08/26 04:38:50;;;;;;;9.85;4.18;;;26.60;1.00;;;;;;5030821;28;20028;-58
2022/08/26 04:41:18;;;;;;;4.60;3.88;;;26.60;1.00;;;;;;5031418;28;20033;-58
2022/08/26 04:43:45;;;;;;;6.07;3.75;;;26.50;1.00;;;;;;5031956;28;20105;-58
2022/08/26 04:56:17;;;;;;;8.68;4.20;;;26.50;1.00;;;;;;5019972;28;20099;-58
2022/08/26 04:58:42;;;;;;;4.97;3.47;;;26.50;1.00;;;;;;5031162;28;20483;-58
2022/08/26 05:01:08;;;;;;;6.90;4.55;;;26.50;1.00;;;;;;5030938;28;20025;-58
2022/08/26 05:03:36;;;;;;;6.47;4.10;;;26.50;1.00;;;;;;5031668;28;20037;-58
2022/08/26 05:06:04;;;;;;;4.45;4.07;;;26.50;1.00;;;;;;5031101;28;20061;-59
2022/08/26 05:08:30;;;;;;;5.15;4.07;;;26.50;1.00;;;;;;5031823;28;20026;-57
2022/08/26 05:10:55;;;;;;;7.07;3.75;;;26.50;1.00;;;;;;5032980;28;20029;-57
2022/08/26 05:13:26;;;;;;;6.25;3.85;;;26.50;1.00;;;;;;5031819;28;20026;-57
2022/08/26 05:15:52;;;;;;;10.55;4.32;;;26.60;1.00;;;;;;5023697;28;20021;-58
2022/08/26 05:18:20;;;;;;;5.78;4.20;;;26.50;1.00;;;;;;5039691;28;20036;-58
2022/08/26 05:20:49;;;;;;;5.47;4.10;;;26.40;1.00;;;;;;5031086;28;20058;-58
2022/08/26 05:23:15;;;;;;;4.85;4.40;;;26.50;1.00;;;;;;5028539;28;20112;-55
2022/08/26 05:25:46;;;;;;;4.82;4.28;;;26.40;1.00;;;;;;5027809;28;20099;-56
2022/08/26 05:28:14;;;;;;;8.70;4.03;;;26.50;1.00;;;;;;5031011;28;20041;-54
2022/08/26 05:30:40;;;;;;;6.43;3.92;;;26.50;1.00;;;;;;5030643;28;20017;-56
2022/08/26 05:33:08;;;;;;;6.00;4.03;;;26.50;1.00;;;;;;5029395;28;20048;-57
2022/08/26 05:35:34;;;;;;;5.18;4.32;;;26.50;1.00;;;;;;5028843;28;20021;-58
2022/08/26 05:38:01;;;;;;;5.28;4.18;;;26.50;1.00;;;;;;5031576;28;20479;-58
2022/08/26 05:40:28;;;;;;;5.43;4.35;;;26.50;1.00;;;;;;5031403;28;20072;-58
2022/08/26 05:42:54;;;;;;;9.15;4.32;;;26.60;1.00;;;;;;5031428;28;20466;-56
2022/08/26 05:45:22;;;;;;;6.35;4.22;;;26.60;1.00;;;;;;5033441;28;20031;-58
2022/08/26 05:47:47;;;;;;;7.65;4.68;;;26.60;1.00;;;;;;5031426;28;20432;-57
2022/08/26 05:50:13;;;;;;;5.70;4.38;;;26.50;1.00;;;;;;5030574;28;20061;-57
2022/08/26 05:52:39;;;;;;;6.63;4.22;;;26.50;1.00;;;;;;5031539;28;20128;-59
2022/08/26 05:55:05;;;;;;;6.95;4.75;;;26.50;1.00;;;;;;5030311;28;20029;-58
2022/08/26 05:57:30;;;;;;;10.05;5.40;;;26.50;1.00;;;;;;5031437;28;20471;-58
2022/08/26 05:59:56;;;;;;;10.52;5.38;;;26.60;1.00;;;;;;5030474;28;20029;-57
2022/08/26 06:02:22;;;;;;;6.78;5.65;;;26.60;1.00;;;;;;5031255;28;20037;-58
2022/08/26 06:04:48;;;;;;;10.57;5.80;;;26.50;1.00;;;;;;5040791;28;20052;-56
2022/08/26 06:07:15;;;;;;;7.88;6.50;;;26.50;1.00;;;;;;5035153;28;20022;-58
2022/08/26 06:09:41;;;;;;;8.52;6.72;;;26.50;1.00;;;;;;5042722;28;20087;-58
2022/08/26 06:12:07;;;;;;;8.20;5.90;;;26.50;1.00;;;;;;5034861;28;20033;-58
2022/08/26 06:14:35;;;;;;;8.55;6.80;;;26.50;1.00;;;;;;5041898;28;20024;-57
2022/08/26 06:26:32;;;;;;;9.98;8.32;;;26.40;1.00;;;;;;5032276;28;20388;-56
2022/08/26 06:28:58;;;;;;;10.57;7.57;;;26.20;1.00;;;;;;5038339;28;20039;-58
2022/08/26 06:31:25;;;;;;;9.43;7.78;;;26.30;1.00;;;;;;5039227;28;20041;-58
2022/08/26 06:33:51;;;;;;;11.00;8.05;;;26.30;1.00;;;;;;5033860;28;20434;-57
2022/08/26 06:36:24;;;;;;;9.68;8.77;;;26.40;1.00;;;;;;5034519;28;20124;-58
2022/08/26 06:38:51;;;;;;;10.38;9.30;;;26.40;1.00;;;;;;5033528;28;20014;-57
2022/08/26 06:41:19;;;;;;;10.55;9.23;;;26.40;1.00;;;;;;5020524;28;20456;-57
2022/08/26 06:43:46;;;;;;;11.63;8.82;;;26.40;1.00;;;;;;5033556;28;21613;-59
2022/08/26 06:46:13;;;;;;;12.27;11.02;;;26.40;1.00;;;;;;5034107;28;20044;-58
2022/08/26 06:48:39;;;;;;;11.95;10.73;;;26.40;1.00;;;;;;5033473;28;20079;-57
2022/08/26 06:51:09;;;;;;;15.43;10.07;;;26.40;1.00;;;;;;5034078;28;20025;-58
2022/08/26 06:53:36;;;;;;;13.82;9.48;;;26.40;1.00;;;;;;5033967;28;20068;-57
2022/08/26 06:56:07;;;;;;;13.90;10.35;;;26.50;1.00;;;;;;5040438;28;20470;-58
2022/08/26 06:58:34;;;;;;;12.20;10.68;;;26.50;1.00;;;;;;5033274;28;20100;-58
2022/08/26 07:01:00;;;;;;;14.50;9.60;;;26.50;1.00;;;;;;5041301;28;20487;-58
2022/08/26 07:03:26;;;;;;;10.98;9.65;;;26.60;1.00;;;;;;5033789;28;20029;-57
2022/08/26 07:05:52;;;;;;;12.23;9.68;;;26.50;1.00;;;;;;5041623;28;20092;-56
2022/08/26 07:08:17;;;;;;;10.10;8.98;;;26.60;1.00;;;;;;5033909;28;20037;-58
2022/08/26 07:10:43;;;;;;;11.27;9.68;;;26.60;1.00;;;;;;5033304;28;20018;-57
2022/08/26 07:13:11;;;;;;;15.27;9.95;;;26.70;1.00;;;;;;5033871;28;20446;-58
2022/08/26 07:15:41;;;;;;;10.48;8.98;;;26.70;1.00;;;;;;5041427;28;20411;-58
2022/08/26 07:18:08;;;;;;;11.48;9.13;;;26.70;1.00;;;;;;5034039;28;20041;-58
2022/08/26 07:20:39;;;;;;;12.27;9.38;;;26.80;1.00;;;;;;5043002;28;20014;-58
2022/08/26 07:23:06;;;;;;;8.77;7.88;;;26.90;1.00;;;;;;5033596;28;20124;-58
2022/08/26 07:25:31;;;;;;;9.93;7.60;;;26.90;1.00;;;;;;5032630;28;20022;-58
2022/08/26 07:27:57;;;;;;;9.25;8.20;;;26.90;1.00;;;;;;5038966;28;20408;-59
2022/08/26 07:30:25;;;;;;;11.75;8.68;;;27.00;1.00;;;;;;5044159;28;20051;-57
2022/08/26 07:32:55;;;;;;;10.43;8.43;;;27.00;1.00;;;;;;5031606;28;20057;-58
2022/08/26 07:35:20;;;;;;;13.02;8.13;;;27.00;1.00;;;;;;5032592;28;20035;-58
2022/08/26 07:37:46;;;;;;;9.07;7.50;;;27.10;1.00;;;;;;5033510;28;20092;-59
2022/08/26 07:40:12;;;;;;;13.18;8.70;;;27.10;1.00;;;;;;5030723;28;20030;-57
2022/08/26 07:42:38;;;;;;;11.30;7.68;;;27.00;1.00;;;;;;5033583;28;20044;-58
2022/08/26 07:45:10;;;;;;;9.80;7.03;;;27.10;1.00;;;;;;5043540;28;20033;-59
2022/08/26 07:47:35;;;;;;;11.43;7.93;;;27.20;1.00;;;;;;5035169;28;20109;-59
2022/08/26 07:50:01;;;;;;;9.73;8.68;;;27.20;1.00;;;;;;5036780;28;20053;-59
2022/08/26 07:52:28;;;;;;;10.65;9.10;;;27.20;1.00;;;;;;5042809;28;20033;-57
2022/08/26 07:54:59;;;;;;;10.88;7.88;;;27.20;1.00;;;;;;5032223;28;20076;-58
2022/08/26 07:57:26;;;;;;;9.70;6.97;;;27.20;1.00;;;;;;5030334;28;20026;-59
2022/08/26 07:59:58;;;;;;;10.50;7.50;;;27.30;1.00;;;;;;5030575;28;20471;-59
2022/08/26 08:02:24;;;;;;;11.73;7.05;;;27.30;1.00;;;;;;5032129;28;20084;-59
2022/08/26 08:04:51;;;;;;;9.88;6.07;;;27.40;1.00;;;;;;5032204;28;20060;-59
2022/08/26 08:07:17;;;;;;;11.77;6.70;;;27.40;1.00;;;;;;5032885;28;20029;-58
2022/08/26 08:09:42;;;;;;;10.70;6.25;;;27.40;1.00;;;;;;5037500;28;20030;-58
2022/08/26 08:12:08;;;;;;;9.18;5.97;;;27.50;1.00;;;;;;5032627;28;20029;-58
2022/08/26 08:14:40;;;;;;;9.23;5.82;;;27.50;1.00;;;;;;5041605;28;20064;-58
2022/08/26 08:17:06;;;;;;;8.60;6.15;;;27.60;1.00;;;;;;5034093;28;20052;-59
2022/08/26 08:19:41;;;;;;;7.53;5.93;;;27.60;1.00;;;;;;5037017;28;20423;-58
2022/08/26 08:22:07;;;;;;;11.55;5.95;;;27.60;1.00;;;;;;5033413;28;20037;-59
2022/08/26 08:24:34;;;;;;;11.00;5.40;;;27.70;1.00;;;;;;5031750;28;20101;-59
2022/08/26 08:27:03;;;;;;;6.15;5.00;;;27.70;1.00;;;;;;5038069;28;20036;-59
2022/08/26 08:29:29;;;;;;;8.65;6.28;;;27.80;1.00;;;;;;5031811;28;20057;-59
2022/08/26 08:31:58;;;;;;;10.70;6.30;;;27.80;1.00;;;;;;5032163;28;20045;-59
2022/08/26 08:34:27;;;;;;;6.03;5.47;;;27.90;1.00;;;;;;5030918;28;20025;-59
2022/08/26 08:36:54;;;;;;;8.90;5.38;;;28.00;1.00;;;;;;5032290;28;20072;-59
2022/08/26 08:39:19;;;;;;;10.68;5.95;;;28.10;1.00;;;;;;5031632;28;20107;-59
2022/08/26 08:42:23;;;;;;;9.57;6.22;;;28.10;1.00;;;;;;5032385;28;20457;-59
2022/08/26 08:44:50;;;;;;;5.72;4.90;;;28.30;1.00;;;;;;5031223;28;20039;-59
2022/08/26 08:47:31;;;;;;;5.68;4.65;;;28.40;1.00;;;;;;5032439;28;20463;-57
2022/08/26 08:50:05;;;;;;;7.50;6.20;;;28.50;1.00;;;;;;5038133;28;20036;-59
2022/08/26 08:52:34;;;;;;;8.35;5.40;;;28.60;1.00;;;;;;5033755;28;20018;-59
2022/08/26 08:55:01;;;;;;;7.18;5.22;;;28.80;1.00;;;;;;5036773;28;20079;-59
2022/08/26 08:57:48;;;;;;;7.93;6.05;;;28.90;1.00;;;;;;5035081;28;20075;-59
2022/08/26 09:00:17;;;;;;;6.20;5.60;;;28.90;1.00;;;;;;5039577;28;20116;-59
2022/08/26 09:02:51;;;;;;;7.05;5.30;;;29.00;1.00;;;;;;5033365;28;20560;-59
2022/08/26 09:05:30;;;;;;;6.32;5.72;;;29.10;1.00;;;;;;5031473;28;20471;-59
2022/08/26 09:08:10;;;;;;;7.88;5.85;;;29.00;1.00;;;;;;5032014;28;20068;-59
2022/08/26 09:10:46;;;;;;;8.45;6.20;;;29.20;1.00;;;;;;5030044;28;20530;-59
2022/08/26 09:13:17;;;;;;;11.02;5.97;;;29.20;1.00;;;;;;5031914;28;20045;-59
2022/08/26 09:16:16;;;;;;;10.77;6.70;;;29.30;1.00;;;;;;5031058;28;20546;-59
2022/08/26 09:19:09;;;;;;;14.80;6.88;;;29.30;1.00;;;;;;5019568;28;20064;-59
2022/08/26 09:21:36;;;;;;;8.43;5.93;;;29.40;1.00;;;;;;5031795;28;20387;-59
2022/08/26 09:24:02;;;;;;;7.68;5.68;;;29.50;1.00;;;;;;5030550;28;20076;-58
2022/08/26 09:26:37;;;;;;;9.10;5.60;;;29.60;1.00;;;;;;5034711;28;20072;-59
2022/08/26 09:29:17;;;;;;;8.38;7.45;;;29.70;1.00;;;;;;5032032;28;20099;-57
2022/08/26 09:31:44;;;;;;;7.70;6.15;;;29.60;1.00;;;;;;5028094;28;20175;-59
2022/08/26 09:34:15;;;;;;;5.85;5.20;;;29.70;1.00;;;;;;5031773;28;20022;-59
2022/08/26 09:36:48;;;;;;;6.72;5.80;;;29.70;1.00;;;;;;5035548;28;20057;-59
2022/08/26 09:39:31;;;;;;;7.30;6.18;;;29.70;1.00;;;;;;5032961;28;20017;-59
2022/08/26 09:42:19;;;;;;;7.68;6.85;;;29.70;1.00;;;;;;5032586;28;20025;-60
2022/08/26 09:45:05;;;;;;;9.57;7.57;;;29.70;1.00;;;;;;5038041;28;20429;-59
2022/08/26 09:47:32;;;;;;;7.85;6.13;;;29.70;1.00;;;;;;5022562;28;20021;-59
2022/08/26 09:50:23;;;;;;;8.18;7.28;;;29.70;1.00;;;;;;5039455;28;20025;-59
2022/08/26 09:53:17;;;;;;;9.30;7.65;;;29.70;1.00;;;;;;5023797;28;20026;-58
2022/08/26 09:55:48;;;;;;;8.73;7.32;;;29.70;1.00;;;;;;5033472;28;20037;-59
2022/08/26 09:58:33;;;;;;;7.13;6.32;;;29.70;1.00;;;;;;5038042;28;20029;-59
2022/08/26 10:01:01;;;;;;;8.30;6.22;;;29.80;1.00;;;;;;5035118;28;20097;-58
2022/08/26 10:03:36;;;;;;;6.93;6.20;;;29.80;1.00;;;;;;5025699;28;20045;-58
2022/08/26 10:06:19;;;;;;;9.50;7.25;;;29.90;1.00;;;;;;5034163;28;20021;-59
2022/08/26 10:08:49;;;;;;;5.28;4.78;;;30.00;1.00;;;;;;5033851;28;20331;-59
2022/08/26 10:11:38;;;;;;;5.35;4.55;;;30.10;1.00;;;;;;5030976;28;20021;-59
2022/08/26 10:14:13;;;;;;;5.55;5.15;;;30.30;1.00;;;;;;5034601;28;20029;-59
2022/08/26 10:16:42;;;;;;;7.10;5.40;;;30.40;1.00;;;;;;5036461;28;20033;-58
2022/08/26 10:19:11;;;;;;;6.75;6.13;;;30.40;1.00;;;;;;5033156;28;20495;-58
2022/08/26 10:21:54;;;;;;;7.40;6.30;;;30.40;1.00;;;;;;5035583;28;20496;-59
2022/08/26 10:24:35;;;;;;;7.70;6.55;;;30.40;1.00;;;;;;5027999;28;20051;-59
2022/08/26 10:27:31;;;;;;;10.10;6.78;;;30.50;1.00;;;;;;5034695;28;20144;-59
2022/08/26 10:30:05;;;;;;;6.65;5.95;;;30.50;1.00;;;;;;5032595;28;20037;-59
2022/08/26 10:32:38;;;;;;;7.05;6.35;;;30.60;1.00;;;;;;5034426;28;20041;-60
2022/08/26 10:35:06;;;;;;;;;;;30.70;1.00;;;;;;5034130;28;20035;-59
2022/08/26 10:37:48;;;;;;;7.25;6.18;;;30.80;1.00;;;;;;5033314;28;20323;-59
2022/08/26 10:40:22;;;;;;;7.90;7.20;;;30.90;1.00;;;;;;5031155;28;20036;-59
2022/08/26 10:42:50;;;;;;;;;;;31.00;1.00;;;;;;5033860;28;20147;-58
2022/08/26 10:45:20;;;;;;;11.82;6.53;;;31.00;1.00;;;;;;5030582;28;20000;-59
2022/08/26 10:47:52;;;;;;;7.88;7.03;;;31.10;1.00;;;;;;5032800;28;20034;-59
2022/08/26 10:50:20;;;;;;;8.43;7.57;;;31.10;1.00;;;;;;5029807;28;20055;-58
2022/08/26 10:53:09;;;;;;;7.93;7.18;;;31.10;1.00;;;;;;5033689;28;20317;-58
2022/08/26 10:55:42;;;;;;;6.72;6.03;;;31.10;1.00;;;;;;5024971;28;20026;-58
2022/08/26 10:58:28;;;;;;;12.05;7.50;;;31.10;1.00;;;;;;5029453;28;20112;-59
2022/08/26 11:04:12;;;;;;;9.88;7.97;;;31.20;1.00;;;;;;5033222;28;20061;-58
2022/08/26 11:06:38;;;;;;;6.93;6.00;;;31.30;1.00;;;;;;5034056;28;20029;-58
2022/08/26 11:09:07;;;;;;;9.05;6.60;;;31.40;1.00;;;;;;5032988;28;20063;-58
2022/08/26 11:11:39;;;;;;;8.85;7.18;;;31.40;1.00;;;;;;5033742;28;20485;-58
2022/08/26 11:14:32;;;;;;;9.68;7.20;;;31.60;1.00;;;;;;5041320;28;20092;-58
2022/08/26 11:16:58;;;;;;;11.80;8.77;;;31.70;1.00;;;;;;5020936;28;20539;-59
2022/08/26 11:19:40;;;;;;;12.43;8.70;;;31.70;1.00;;;;;;5030541;28;20594;-59
2022/08/26 11:22:25;;;;;;;9.60;8.52;;;31.70;1.00;;;;;;5030418;28;20036;-59
2022/08/26 11:24:54;;;;;;;10.60;9.55;;;31.80;1.00;;;;;;5042222;28;20059;-59
2022/08/26 11:27:23;;;;;;;10.45;8.35;;;31.90;1.00;;;;;;5034428;28;20028;-59
2022/08/26 11:30:03;;;;;;;12.00;10.85;;;32.00;1.00;;;;;;5039033;28;20033;-59
2022/08/26 11:32:43;;;;;;;12.48;10.52;;;31.70;1.00;;;;;;5033456;28;20053;-60
2022/08/26 11:35:31;;;;;;;10.38;9.15;;;31.90;1.00;;;;;;5032624;28;20026;-60
2022/08/26 11:38:21;;;;;;;11.55;9.50;;;32.00;1.00;;;;;;5033251;28;20021;-60
2022/08/26 11:41:11;;;;;;;9.07;8.30;;;32.20;1.00;;;;;;5027774;28;20108;-59
2022/08/26 11:43:38;;;;;;;10.82;7.03;;;32.10;1.00;;;;;;5036824;28;20033;-60
2022/08/26 11:46:07;;;;;;;7.18;6.43;;;32.30;1.00;;;;;;5037369;28;20025;-60
2022/08/26 11:48:36;;;;;;;6.78;5.72;;;32.60;1.00;;;;;;5035627;28;20119;-60
2022/08/26 11:51:06;;;;;;;9.60;6.03;;;32.60;1.00;;;;;;5038449;28;20072;-60
2022/08/26 11:53:35;;;;;;;6.68;6.07;;;32.80;1.00;;;;;;5033780;28;20109;-60
2022/08/26 11:56:24;;;;;;;8.85;7.30;;;32.80;1.00;;;;;;5039212;28;20031;-59
2022/08/26 11:58:55;;;;;;;7.43;6.82;;;32.80;1.00;;;;;;5020537;28;20044;-60
2022/08/26 12:01:27;;;;;;;7.25;6.55;;;32.90;1.00;;;;;;5032460;28;20044;-59
2022/08/26 12:03:54;;;;;;;8.90;8.05;;;32.90;1.00;;;;;;5037395;28;20064;-59
2022/08/26 12:06:36;;;;;;;10.10;6.82;;;32.90;1.00;;;;;;5036377;28;20025;-60
2022/08/26 12:09:07;;;;;;;7.18;6.47;;;33.00;1.00;;;;;;5032060;28;20104;-60
2022/08/26 12:11:35;;;;;;;11.43;7.38;;;33.20;1.00;;;;;;5032800;28;20025;-60
2022/08/26 12:14:05;;;;;;;11.10;8.27;;;33.20;1.00;;;;;;5037304;28;20033;-58
2022/08/26 12:16:35;;;;;;;10.52;9.20;;;33.80;1.00;;;;;;5038752;28;20089;-59
2022/08/26 12:22:27;;;;;;;7.10;6.45;;;34.30;1.00;;;;;;5020800;28;20048;-58
2022/08/26 12:24:58;;;;;;;10.43;7.22;;;34.30;1.00;;;;;;5033765;28;20021;-58
2022/08/26 12:27:28;;;;;;;6.97;6.30;;;34.10;1.00;;;;;;5041726;28;20029;-59
2022/08/26 12:30:03;;;;;;;9.90;6.45;;;34.00;1.00;;;;;;5032190;28;20112;-58
2022/08/26 12:32:32;;;;;;;6.70;5.75;;;33.80;1.00;;;;;;5039792;28;20055;-58
2022/08/26 12:35:01;;;;;;;11.35;6.38;;;33.80;1.00;;;;;;5032321;28;20028;-58
2022/08/26 12:37:28;;;;;;;8.80;6.95;;;34.00;1.00;;;;;;5042184;28;20033;-59
2022/08/26 12:39:54;;;;;;;5.95;5.35;;;33.90;1.00;;;;;;5032110;28;20030;-59
2022/08/26 12:42:19;;;;;;;10.55;5.90;;;34.20;1.00;;;;;;5042665;28;20441;-59
2022/08/26 12:44:59;;;;;;;7.72;5.65;;;34.40;1.00;;;;;;5032139;28;20101;-59
2022/08/26 12:47:31;;;;;;;8.32;5.95;;;34.40;1.00;;;;;;5042664;28;20035;-59
2022/08/26 12:50:05;;;;;;;6.35;5.75;;;34.60;1.00;;;;;;5032061;28;20025;-59
2022/08/26 12:52:50;;;;;;;6.90;6.22;;;35.20;1.00;;;;;;5045035;28;20056;-59
2022/08/26 12:55:25;;;;;;;6.90;5.32;;;35.70;1.00;;;;;;5032065;28;20025;-59
2022/08/26 12:58:32;;;;;;;5.43;4.63;;;36.50;1.00;;;;;;5044431;28;20035;-58
2022/08/26 13:01:03;;;;;;;6.88;4.22;;;37.00;1.00;;;;;;5028521;28;20095;-59
2022/08/26 13:03:44;;;;;;;5.63;5.13;;;37.00;1.00;;;;;;5031901;28;20080;-59
2022/08/26 13:06:21;;;;;;;6.15;5.65;;;37.10;1.00;;;;;;5031703;28;20029;-59
2022/08/26 13:08:59;;;;;;;6.18;5.57;;;37.80;1.00;;;;;;5031933;28;20030;-59
2022/08/26 13:11:39;;;;;;;7.15;5.72;;;38.20;1.00;;;;;;5030994;28;20048;-59
2022/08/26 13:14:09;;;;;;;8.68;5.50;;;39.50;1.00;;;;;;5033201;28;20021;-58
2022/08/26 13:16:36;;;;;;;5.63;4.95;;;40.00;1.00;;;;;;5035858;28;20033;-59
2022/08/26 13:19:05;;;;;;;5.97;4.82;;;39.30;1.00;;;;;;5036010;28;20032;-58
2022/08/26 13:21:34;;;;;;;5.65;5.15;;;39.70;1.00;;;;;;5036511;28;20537;-59
2022/08/26 13:24:07;;;;;;;6.63;6.05;;;41.00;1.00;;;;;;5035667;28;20147;-59
2022/08/26 13:26:32;;;;;;;4.95;4.53;;;42.00;1.00;;;;;;5041804;28;20132;-58
2022/08/26 13:28:58;;;;;;;5.88;4.53;;;43.10;1.00;;;;;;5035866;28;20519;-59
2022/08/26 13:31:25;;;;;;;5.13;4.40;;;44.00;1.00;;;;;;5034593;28;20427;-59
2022/08/26 13:33:51;;;;;;;8.95;5.07;;;43.90;1.00;;;;;;5035337;28;20339;-59
2022/08/26 13:36:16;;;;;;;6.43;4.97;;;45.90;1.00;;;;;;5034937;28;20097;-59
2022/08/26 13:38:42;;;;;;;4.95;4.60;;;46.50;1.00;;;;;;5037282;28;20034;-59
2022/08/26 13:41:08;;;;;;;5.70;5.28;;;45.20;1.00;;;;;;5035256;28;20049;-59
2022/08/26 13:43:35;;;;;;;8.48;6.97;;;43.40;1.00;;;;;;5044007;28;20059;-59
2022/08/26 13:46:01;;;;;;;9.48;6.80;;;43.30;1.00;;;;;;5034096;28;20022;-59